Latest Weather Observations for Munglinup West

IDW60801

Issued at 11:02 pm WST Saturday 18 April 2015 (issued every 30 minutes, with the page automatically refreshed every 10 minutes)

About weather observations | Map of weather stations | Latest weather observations for WA | Other Formats
Station Details ID: 012044 Name: MUNGLINUP WEST Lat: -33.55 Lon: 120.70 Height: 220.0 m
Data from the previous 72 hours. | See also: Recent months at Munglinup West
Date/Time
WST
Temp
°C
App
Temp
°C
Dew
Point
Rel
Hum
%
Delta-T
°C
Wind Press
QNH
hPa
Press
MSL
hPa
Rain
since 9 am
mm
Dir
 
Spd
km/h
Gust
km/h
Spd
kts
Gust
kts
18/11:00pm 12.1 8.0 8.6 79 1.7 E 20 28 11 15 1030.0 1029.5 0.6
18/10:30pm 11.6 8.1 8.8 83 1.4 E 17 20 9 11 1030.0 1029.5 0.6
18/10:00pm 12.1 8.7 9.3 83 1.4 E 17 24 9 13 1030.0 1029.5 0.6
18/09:30pm 12.4 8.7 9.6 83 1.4 E 19 24 10 13 1029.8 1029.3 0.6
18/09:00pm 13.0 10.5 9.8 81 1.6 E 13 19 7 10 1029.7 1029.2 0.6
18/08:30pm 13.3 10.0 9.5 78 2.0 E 17 22 9 12 1029.7 1029.2 0.6
18/08:00pm 13.7 10.8 9.7 77 2.1 E 15 20 8 11 1029.5 1028.9 0.6
18/07:30pm 13.4 10.5 9.6 78 2.0 E 15 24 8 13 1029.4 1028.8 0.6
18/07:00pm 13.9 10.7 10.1 78 2.0 ESE 17 20 9 11 1029.4 1028.8 0.6
18/06:30pm 13.7 10.6 10.3 80 1.8 ESE 17 22 9 12 1028.9 1028.4 0.6
18/06:00pm 14.1 11.1 10.5 79 1.9 ESE 17 26 9 14 1028.5 1028.0 0.6
18/05:30pm 14.8 11.5 11.0 78 2.0 ESE 19 26 10 14 1028.2 1027.7 0.6
18/05:00pm 15.4 12.2 11.2 76 2.3 ESE 19 24 10 13 1027.9 1027.4 0.6
18/04:30pm 15.6 12.2 11.4 76 2.3 ESE 20 28 11 15 1027.7 1027.2 0.6
18/04:00pm 15.9 12.6 11.7 76 2.3 ESE 20 28 11 15 1027.6 1027.1 0.6
18/03:30pm 15.8 11.8 11.8 77 2.2 ESE 24 30 13 16 1027.5 1027.0 0.6
18/03:00pm 16.2 12.0 12.4 78 2.1 SE 26 33 14 18 1027.4 1026.9 0.6
18/02:30pm 16.2 12.1 12.7 80 2.0 ESE 26 35 14 19 1027.2 1026.7 0.6
18/02:00pm 16.0 13.1 14.0 88 1.1 ESE 22 32 12 17 1027.2 1026.7 0.6
18/01:30pm 15.0 12.1 14.0 94 0.6 ESE 22 35 12 19 1027.0 1026.5 0.6
18/01:00pm 15.1 12.9 14.9 99 0.1 ESE 20 28 11 15 1027.0 1026.5 0.6
18/12:30pm 15.9 14.1 15.9 100 0.0 ESE 20 28 11 15 1027.2 1026.7 0.6
18/12:00pm 15.7 13.4 15.7 100 0.0 ESE 22 32 12 17 1027.4 1026.9 0.6
18/11:30am 15.0 11.7 15.0 100 0.0 SE 26 35 14 19 1027.5 1027.0 0.6
18/11:00am 14.8 11.4 14.8 100 0.0 SE 26 35 14 19 1027.5 1027.0 0.4
18/10:30am 15.6 12.5 15.6 100 0.0 SE 26 32 14 17 1027.4 1026.9 0.4
18/10:00am 15.3 12.9 15.3 100 0.0 SE 22 28 12 15 1027.2 1026.7 0.4
18/09:30am 14.7 14.1 14.7 100 0.0 SSE 11 15 6 8 1027.1 1026.6 0.0
18/09:00am 14.0 14.1 14.0 100 0.0 SSW 6 9 3 5 1026.8 1026.3 1.4
18/08:30am 12.8 12.5 12.8 100 0.0 WSW 6 6 3 3 1026.5 1026.0 1.4
18/08:00am 12.3 11.9 12.3 100 0.0 WSW 6 7 3 4 1026.2 1025.7 1.0
18/07:30am 11.9 11.3 11.7 99 0.1 WNW 6 7 3 4 1025.6 1025.0 0.2
18/07:00am 11.6 10.7 11.4 99 0.1 W 7 9 4 5 1025.2 1024.6 0.2
18/06:30am 11.2 10.8 11.0 99 0.1 WNW 4 6 2 3 1024.9 1024.3 0.0
18/06:00am 10.7 9.5 10.4 98 0.2 NW 7 9 4 5 1024.6 1024.0 0.0
18/05:30am 10.1 8.8 9.8 98 0.2 NNW 7 9 4 5 1024.1 1023.6 0.0
18/05:00am 10.5 9.2 10.0 97 0.3 NW 7 11 4 6 1023.9 1023.4 0.0
18/04:30am 10.6 9.0 10.1 97 0.3 NW 9 13 5 7 1023.8 1023.3 0.0
18/04:00am 10.0 8.2 9.4 96 0.3 NNW 9 11 5 6 1023.4 1022.9 0.0
18/03:30am 9.8 8.3 9.2 96 0.3 NNW 7 9 4 5 1023.3 1022.8 0.0
18/03:00am 9.9 8.4 9.1 95 0.4 NNW 7 9 4 5 1023.3 1022.8 0.0
18/02:30am 10.5 8.8 9.7 95 0.4 NNW 9 9 5 5 1023.4 1022.9 0.0
18/02:00am 10.7 9.4 9.9 95 0.4 NW 7 9 4 5 1023.4 1022.9 0.0
18/01:30am 10.2 8.4 9.4 95 0.4 NW 9 9 5 5 1023.2 1022.7 0.0
18/01:00am 10.2 8.3 9.1 93 0.5 NW 9 9 5 5 1023.2 1022.7 0.0
18/12:30am 11.2 9.9 10.1 93 0.6 NW 7 7 4 4 1023.0 1022.5 0.0
18/12:00am 11.5 10.5 10.4 93 0.6 NW 6 6 3 3 1022.8 1022.3 0.0
 
Date/Time
WST
Temp
°C
App
Temp
°C
Dew
Point
Rel
Hum
%
Delta-T
°C
Wind Press
QNH
hPa
Press
MSL
hPa
Rain
since 9 am
mm
Dir
 
Spd
km/h
Gust
km/h
Spd
kts
Gust
kts
17/11:30pm 11.5 11.0 10.7 95 0.4 NNW 4 6 2 3 1023.0 1022.5 0.0
17/11:00pm 10.1 9.6 9.2 94 0.4 NE 2 2 1 1 1023.1 1022.6 0.0
17/10:30pm 10.3 10.2 9.4 94 0.5 CALM 0 0 0 0 1023.2 1022.7 0.0
17/10:00pm 10.4 10.2 9.2 92 0.6 CALM 0 0 0 0 1023.4 1022.9 0.0
17/09:30pm 10.9 10.4 9.5 91 0.7 ESE 2 4 1 2 1023.5 1023.0 0.0
17/09:00pm 11.3 10.5 9.6 89 0.9 SE 4 4 2 2 1023.4 1022.9 0.0
17/08:30pm 11.9 10.8 9.8 87 1.1 SE 6 6 3 3 1023.3 1022.8 0.0
17/08:00pm 11.7 10.3 9.4 86 1.2 SE 7 7 4 4 1023.1 1022.6 0.0
17/07:30pm 12.5 10.4 9.9 84 1.3 SSE 11 13 6 7 1022.9 1022.4 0.0
17/07:00pm 13.2 11.2 10.0 81 1.7 SSE 11 15 6 8 1022.8 1022.3 0.0
17/06:30pm 13.1 10.5 9.5 79 1.9 SSE 13 15 7 8 1022.5 1022.0 0.0
17/06:00pm 14.1 11.5 9.5 74 2.4 SSE 13 15 7 8 1022.2 1021.7 0.0
17/05:30pm 15.8 13.4 9.9 68 3.1 SSE 13 17 7 9 1021.9 1021.4 0.0
17/05:00pm 17.9 15.3 9.5 58 4.4 SSE 13 20 7 11 1021.6 1021.0 0.0
17/04:30pm 19.4 16.4 9.3 52 5.4 SSE 15 20 8 11 1021.5 1020.9 0.0
17/04:00pm 20.8 17.5 9.4 48 6.1 SSE 17 22 9 12 1021.6 1021.0 0.0
17/03:30pm 22.3 19.6 7.3 38 7.8 SW 11 19 6 10 1021.4 1020.8 0.0
17/03:00pm 22.1 18.5 6.7 37 7.9 WSW 15 22 8 12 1021.6 1021.0 0.0
17/02:30pm 21.9 19.8 8.1 41 7.3 W 9 15 5 8 1021.7 1021.1 0.0
17/02:00pm 21.7 19.9 7.9 41 7.2 WNW 7 19 4 10 1022.0 1021.5 0.0
17/01:30pm 21.4 17.7 6.5 38 7.6 WSW 15 24 8 13 1022.3 1021.8 0.0
17/01:00pm 20.9 16.6 7.2 41 7.1 W 19 30 10 16 1022.8 1022.3 0.0
17/12:30pm 20.4 16.6 7.7 44 6.6 WSW 17 24 9 13 1023.5 1023.0 0.0
17/12:00pm 20.3 16.6 8.0 45 6.4 WSW 17 24 9 13 1024.2 1023.7 0.0
17/11:30am 19.9 17.8 8.3 47 6.1 WSW 9 20 5 11 1024.8 1024.2 0.0
17/11:00am 19.2 15.6 8.5 50 5.6 W 17 30 9 16 1025.4 1024.8 0.0
17/10:30am 18.4 15.5 8.1 51 5.3 WNW 13 20 7 11 1025.9 1025.4 0.0
17/10:00am 18.0 15.3 9.1 56 4.7 NW 13 22 7 12 1026.3 1025.8 0.0
17/09:30am 17.1 14.1 9.3 60 4.1 NNW 15 22 8 12 1026.6 1026.1 0.0
17/09:00am 16.1 13.2 9.5 65 3.4 NW 15 20 8 11 1026.8 1026.3 0.0
17/08:30am 14.7 12.3 9.9 73 2.5 NNW 13 19 7 10 1026.8 1026.3 0.0
17/08:00am 12.8 11.5 11.2 90 0.8 N 9 15 5 8 1027.1 1026.6 0.0
17/07:30am 10.4 9.3 9.9 97 0.3 N 6 9 3 5 1027.1 1026.6 0.0
17/07:00am 8.2 6.9 7.8 97 0.2 NNW 4 6 2 3 1027.0 1026.5 0.0
17/06:30am 7.6 5.6 7.2 97 0.2 N 7 11 4 6 1027.0 1026.5 0.0
17/06:00am 7.6 5.6 7.2 97 0.2 N 7 9 4 5 1027.1 1026.6 0.0
17/05:30am 8.2 6.0 7.8 97 0.2 NNE 9 13 5 7 1027.0 1026.5 0.0
17/05:00am 8.0 5.3 7.4 96 0.3 NNE 11 13 6 7 1027.1 1026.6 0.0
17/04:30am 7.5 5.4 6.8 95 0.3 N 7 9 4 5 1027.2 1026.7 0.0
17/04:00am 8.0 5.6 7.2 95 0.4 NNE 9 13 5 7 1027.0 1026.5 0.0
17/03:30am 8.2 5.5 7.3 94 0.4 NNE 11 15 6 8 1027.1 1026.6 0.0
17/03:00am 8.2 5.1 7.1 93 0.5 NNE 13 15 7 8 1027.2 1026.7 0.0
17/02:30am 8.3 5.5 7.1 92 0.6 NNE 11 13 6 7 1027.7 1027.2 0.0
17/02:00am 9.0 6.4 7.6 91 0.7 NNE 11 13 6 7 1027.9 1027.4 0.0
17/01:30am 9.2 6.6 7.8 91 0.7 NNE 11 11 6 6 1028.2 1027.7 0.0
17/01:00am 8.7 6.7 7.3 91 0.7 NNE 7 9 4 5 1028.4 1027.9 0.0
17/12:30am 8.7 6.0 7.5 92 0.6 NNE 11 13 6 7 1028.4 1027.9 0.0
17/12:00am 8.2 6.1 6.8 91 0.7 N 7 9 4 5 1028.6 1028.1 0.0
 
Date/Time
WST
Temp
°C
App
Temp
°C
Dew
Point
Rel
Hum
%
Delta-T
°C
Wind Press
QNH
hPa
Press
MSL
hPa
Rain
since 9 am
mm
Dir
 
Spd
km/h
Gust
km/h
Spd
kts
Gust
kts
16/11:30pm 8.8 7.3 6.8 87 0.9 NNE 4 4 2 2 1029.0 1028.5 0.0
16/11:00pm 9.9 8.1 7.3 84 1.2 SE 6 6 3 3 1029.4 1028.8 0.0
16/10:30pm 10.7 8.9 7.8 82 1.4 ESE 7 9 4 5 1029.5 1028.9 0.0
16/10:00pm 10.5 8.6 7.7 83 1.4 ESE 7 9 4 5 1029.6 1029.0 0.0
16/09:30pm 10.8 9.0 7.9 82 1.4 ESE 7 9 4 5 1029.5 1028.9 0.0
16/09:00pm 10.7 8.5 7.9 83 1.4 ESE 9 9 5 5 1029.3 1028.7 0.0
16/08:30pm 10.7 8.9 7.9 83 1.4 ESE 7 9 4 5 1029.4 1028.8 0.0
16/08:00pm 11.3 9.2 8.2 81 1.5 ESE 9 11 5 6 1029.5 1028.9 0.0
16/07:30pm 11.2 8.7 8.2 82 1.5 SE 11 13 6 7 1029.6 1029.0 0.0
16/07:00pm 10.7 8.1 7.8 82 1.4 SE 11 13 6 7 1029.7 1029.2 0.0
16/06:30pm 11.4 8.7 7.3 76 2.0 SE 11 11 6 6 1029.8 1029.3 0.0
16/06:00pm 12.9 10.7 8.0 72 2.4 SSE 9 11 5 6 1029.7 1029.2 0.0
16/05:30pm 14.7 12.2 8.0 64 3.4 SSE 11 15 6 8 1029.7 1029.2 0.0
16/05:00pm 16.5 13.4 7.4 55 4.6 SE 13 17 7 9 1029.5 1028.9 0.0
16/04:30pm 17.5 15.2 7.5 52 5.1 SSE 9 17 5 9 1029.6 1029.0 0.0
16/04:00pm 17.1 13.3 7.7 54 4.8 SE 17 24 9 13 1029.7 1029.2 0.0
16/03:30pm 18.6 15.1 7.4 48 5.7 SE 15 22 8 12 1029.7 1029.2 0.0
16/03:00pm 18.8 16.6 7.9 49 5.6 SE 9 13 5 7 1029.8 1029.3 0.0
16/02:30pm 19.6 17.8 8.0 47 6.0 SSE 7 15 4 8 1029.9 1029.4 0.0
16/02:00pm 17.9 14.9 7.9 52 5.1 SSE 13 20 7 11 1030.3 1029.8 0.0
16/01:30pm 18.4 15.5 8.1 51 5.3 SE 13 24 7 13 1030.3 1029.8 0.0
16/01:00pm 18.1 16.0 8.4 53 5.0 SSE 9 13 5 7 1030.3 1029.8 0.0
16/12:30pm 18.4 15.9 8.1 51 5.3 SE 11 20 6 11 1030.8 1030.3 0.0
16/12:00pm 18.0 16.2 8.0 52 5.1 SE 7 13 4 7 1031.3 1030.8 0.0
16/11:30am 17.6 15.4 7.9 53 5.0 SSE 9 17 5 9 1031.5 1031.0 0.0
16/11:00am 17.4 15.2 8.0 54 4.8 SE 9 17 5 9 1031.7 1031.2 0.0
16/10:30am 16.5 14.9 8.2 58 4.3 S 6 11 3 6 1031.9 1031.4 0.0
16/10:00am 15.6 14.0 8.8 64 3.5 SW 7 11 4 6 1032.4 1031.9 0.0
16/09:30am 14.9 13.7 9.5 70 2.8 SW 6 7 3 4 1032.4 1031.9 0.0
16/09:00am 14.5 13.6 9.3 71 2.7 WSW 4 7 2 4 1032.1 1031.6 0.0
16/08:30am 13.5 12.5 10.3 81 1.7 W 6 7 3 4 1032.0 1031.5 0.0
16/08:00am 13.0 12.4 10.5 85 1.3 NNW 4 7 2 4 1031.7 1031.2 0.0
16/07:30am 11.7 11.8 10.1 90 0.8 CALM 0 0 0 0 1031.3 1030.8 0.0
16/07:00am 10.8 10.3 9.4 91 0.7 N 2 2 1 1 1030.9 1030.4 0.0
16/06:30am 10.0 8.6 8.8 92 0.6 NNW 6 6 3 3 1030.7 1030.2 0.0
16/06:00am 9.6 8.1 8.5 93 0.5 N 6 7 3 4 1030.3 1029.8 0.0
16/05:30am 9.3 7.7 8.1 92 0.6 NNW 6 6 3 3 1030.3 1029.8 0.0
16/05:00am 9.4 7.7 8.3 93 0.5 N 7 9 4 5 1030.1 1029.6 0.0
16/04:30am 8.9 7.6 7.7 92 0.6 NW 4 6 2 3 1030.0 1029.5 0.0
16/04:00am 8.9 8.0 7.8 93 0.5 NW 2 6 1 3 1030.0 1029.5 0.0
16/03:30am 8.4 7.8 7.5 94 0.4 CALM 0 0 0 0 1029.9 1029.4 0.0
16/03:00am 7.8 7.0 6.6 92 0.6 CALM 0 0 0 0 1029.9 1029.4 0.0
16/02:30am 7.9 7.0 6.2 89 0.8 CALM 0 0 0 0 1030.1 1029.6 0.0
16/02:00am 8.5 7.5 5.8 83 1.2 CALM 0 2 0 1 1030.3 1029.8 0.0
16/01:30am 9.7 7.7 6.2 79 1.6 S 6 7 3 4 1030.4 1029.9 0.0
16/01:00am 9.9 7.7 6.4 79 1.6 SSE 7 9 4 5 1030.3 1029.8 0.0
16/12:30am 10.2 8.1 6.7 79 1.7 SE 7 9 4 5 1030.3 1029.8 0.0
16/12:00am 10.7 8.0 7.4 80 1.6 SE 11 11 6 6 1030.3 1029.8 0.0
 
Date/Time
WST
Temp
°C
App
Temp
°C
Dew
Point
Rel
Hum
%
Delta-T
°C
Wind Press
QNH
hPa
Press
MSL
hPa
Rain
since 9 am
mm
Dir
 
Spd
km/h
Gust
km/h
Spd
kts
Gust
kts
15/11:30pm 11.2 8.8 8.6 84 1.3 SE 11 13 6 7 1030.5 1030.0 0.0

Other Formats:

Comma delimited format used in spreadsheet applications
http://www.bom.gov.au/fwo/IDW60801/IDW60801.95644.axf

JavaScript Object Notation format (JSON) in row-major order
http://www.bom.gov.au/fwo/IDW60801/IDW60801.95644.json